createdAt,value
2023-03-06T00:01:59.261Z,1.78
2023-03-06T00:07:06.648Z,1.94
2023-03-06T00:12:12.875Z,1.97
2023-03-06T00:17:20.834Z,1.88
2023-03-06T00:22:26.342Z,1.75
2023-03-06T00:27:31.359Z,1.88
2023-03-06T00:32:40.181Z,1.80
2023-03-06T00:37:45.789Z,1.72
2023-03-06T00:42:51.807Z,2.00
2023-03-06T00:48:00.491Z,2.13
2023-03-06T00:53:05.619Z,1.92
2023-03-06T00:58:10.586Z,2.01
2023-03-06T01:03:21.254Z,2.16
2023-03-06T01:08:28.329Z,2.13
2023-03-06T01:13:34.885Z,2.13
2023-03-06T01:18:43.041Z,2.01
2023-03-06T01:23:48.040Z,2.10
2023-03-06T01:28:54.530Z,2.02
2023-03-06T01:34:02.428Z,2.16
2023-03-06T01:39:07.744Z,2.15
2023-03-06T01:44:13.903Z,2.32
2023-03-06T01:49:24.047Z,2.04
2023-03-06T01:54:33.879Z,2.07
2023-03-06T01:59:43.071Z,2.04
2023-03-06T02:04:51.536Z,2.07
2023-03-06T02:10:00.690Z,1.90
2023-03-06T02:15:07.045Z,2.12
2023-03-06T02:20:23.257Z,2.11
2023-03-06T02:25:40.800Z,2.03
2023-03-06T02:30:49.110Z,2.03
2023-03-06T02:35:56.427Z,2.04
2023-03-06T02:41:06.774Z,2.04
2023-03-06T02:46:11.802Z,2.12
2023-03-06T02:51:17.049Z,2.09
2023-03-06T02:56:25.114Z,2.20
2023-03-06T03:01:30.454Z,2.02
2023-03-06T03:06:35.630Z,1.96
2023-03-06T03:11:43.733Z,2.05
2023-03-06T03:16:48.745Z,1.99
2023-03-06T03:21:53.752Z,2.02
2023-03-06T03:27:06.999Z,1.97
2023-03-06T03:32:12.471Z,2.00
2023-03-06T03:37:21.877Z,2.03
2023-03-06T03:42:29.504Z,2.04
2023-03-06T03:47:37.882Z,1.94
2023-03-06T03:52:43.831Z,1.87
2023-03-06T03:57:53.016Z,1.81
2023-03-06T04:02:58.178Z,1.77
2023-03-06T04:08:11.410Z,1.79
2023-03-06T04:13:23.122Z,1.86
2023-03-06T04:18:29.419Z,1.84
2023-03-06T04:23:38.422Z,1.82
2023-03-06T04:28:46.826Z,1.57
2023-03-06T04:33:52.937Z,1.71
2023-03-06T04:38:58.297Z,1.71
2023-03-06T04:44:06.988Z,1.61
2023-03-06T04:49:15.362Z,1.61
2023-03-06T04:54:20.287Z,1.49
2023-03-06T04:59:28.305Z,1.54
2023-03-06T05:04:33.637Z,1.44
2023-03-06T05:09:39.328Z,1.37
2023-03-06T05:14:49.062Z,1.44
2023-03-06T05:19:55.094Z,1.44
2023-03-06T05:25:00.688Z,1.31
2023-03-06T05:30:10.031Z,1.36
2023-03-06T05:35:21.223Z,1.44
2023-03-06T05:40:26.160Z,1.45
2023-03-06T05:45:33.752Z,1.46
2023-03-06T05:50:43.853Z,1.35
2023-03-06T05:55:48.784Z,1.36
2023-03-06T06:00:56.896Z,1.55
2023-03-06T06:06:02.387Z,1.39
2023-03-06T06:11:14.173Z,1.44
2023-03-06T06:16:23.024Z,1.33
2023-03-06T06:21:28.744Z,1.52
2023-03-06T06:26:36.494Z,1.64
2023-03-06T06:31:47.776Z,1.65
2023-03-06T06:36:54.464Z,1.69
2023-03-06T06:42:15.408Z,1.81
2023-03-06T06:47:30.595Z,2.12
2023-03-06T06:52:37.592Z,1.99
2023-03-06T06:57:51.829Z,1.86
2023-03-06T07:03:04.977Z,2.14
2023-03-06T07:08:10.098Z,2.01
2023-03-06T07:13:16.387Z,2.15
2023-03-06T07:18:30.213Z,2.20
2023-03-06T07:23:35.476Z,2.04
2023-03-06T07:28:52.076Z,2.25
2023-03-06T07:34:01.905Z,2.46
2023-03-06T07:39:08.136Z,2.47
2023-03-06T07:44:17.089Z,2.54
2023-03-06T07:49:25.332Z,2.68
2023-03-06T07:54:36.356Z,2.97
2023-03-06T07:59:42.180Z,2.96
2023-03-06T08:04:57.734Z,2.90
2023-03-06T08:10:02.794Z,3.27
2023-03-06T08:15:08.961Z,3.46
2023-03-06T08:20:18.693Z,3.37
2023-03-06T08:25:25.072Z,3.61
2023-03-06T08:30:30.491Z,3.54
2023-03-06T08:35:38.371Z,3.64
2023-03-06T08:40:46.669Z,3.55
2023-03-06T08:45:55.216Z,3.44
2023-03-06T08:51:02.926Z,3.42
2023-03-06T08:56:08.746Z,3.36
2023-03-06T09:01:17.206Z,3.07
2023-03-06T09:06:28.542Z,3.20
2023-03-06T09:11:35.462Z,3.57
2023-03-06T09:16:40.723Z,3.50
2023-03-06T09:21:49.755Z,3.86
2023-03-06T09:26:54.736Z,3.68
2023-03-06T09:31:59.785Z,3.56
2023-03-06T09:37:07.964Z,3.44
2023-03-06T09:42:20.279Z,3.21
2023-03-06T09:47:52.408Z,3.18
2023-03-06T09:53:16.305Z,3.15
2023-03-06T09:58:25.278Z,3.42
2023-03-06T10:03:34.145Z,3.80
2023-03-06T10:08:54.084Z,4.18
2023-03-06T10:14:16.248Z,4.64
2023-03-06T10:19:24.837Z,4.37
2023-03-06T10:24:46.576Z,4.79
2023-03-06T10:30:03.286Z,4.85
2023-03-06T10:35:19.019Z,4.40
2023-03-06T10:40:38.423Z,4.06
2023-03-06T10:45:52.530Z,4.08
2023-03-06T10:51:18.437Z,4.04
2023-03-06T10:56:37.476Z,4.28
2023-03-06T11:01:43.856Z,3.95
2023-03-06T11:06:50.706Z,3.96
2023-03-06T11:12:26.125Z,4.04
2023-03-06T11:17:33.304Z,4.04
2023-03-06T11:22:39.635Z,3.86
2023-03-06T11:27:59.634Z,3.44
2023-03-06T11:33:18.828Z,3.42
2023-03-06T11:38:30.907Z,3.02
2023-03-06T11:43:45.377Z,3.03
2023-03-06T11:48:55.899Z,3.19
2023-03-06T11:54:03.110Z,3.00
2023-03-06T11:59:27.917Z,3.69
2023-03-06T12:04:43.780Z,3.78
2023-03-06T12:09:56.801Z,3.58
2023-03-06T12:15:22.772Z,3.90
2023-03-06T12:20:46.513Z,3.94
2023-03-06T12:26:00.649Z,3.71
2023-03-06T12:31:39.042Z,3.94
2023-03-06T12:36:56.820Z,4.31
2023-03-06T12:42:23.827Z,5.67
2023-03-06T12:47:40.410Z,5.58
2023-03-06T12:52:46.201Z,5.47
2023-03-06T12:58:01.783Z,5.50
2023-03-06T13:03:20.332Z,5.32
2023-03-06T13:08:55.585Z,4.90
2023-03-06T13:14:05.532Z,5.30
2023-03-06T13:19:23.021Z,5.18
2023-03-06T13:24:37.364Z,5.31
2023-03-06T13:30:18.400Z,5.37
2023-03-06T13:35:58.795Z,4.81
2023-03-06T13:41:38.414Z,4.40
2023-03-06T13:46:44.195Z,5.07
2023-03-06T13:52:10.393Z,4.86
2023-03-06T13:57:38.362Z,5.01
2023-03-06T14:03:04.140Z,4.76
2023-03-06T14:08:29.952Z,4.94
2023-03-06T14:14:03.670Z,5.02
2023-03-06T14:19:22.208Z,4.89
2023-03-06T14:24:38.260Z,5.14
2023-03-06T14:29:47.687Z,4.89
2023-03-06T14:34:55.048Z,4.82
2023-03-06T14:40:03.929Z,5.02
2023-03-06T14:45:18.897Z,4.77
2023-03-06T14:50:28.239Z,4.77
2023-03-06T14:55:38.910Z,4.94
2023-03-06T15:00:49.616Z,4.99
2023-03-06T15:06:17.506Z,5.20
2023-03-06T15:11:28.741Z,4.86
2023-03-06T15:16:35.387Z,5.03
2023-03-06T15:21:41.801Z,4.75
2023-03-06T15:26:56.012Z,4.74
2023-03-06T15:32:16.957Z,4.35
2023-03-06T15:37:28.607Z,4.73
2023-03-06T15:42:39.799Z,4.51
2023-03-06T15:47:45.972Z,4.59
2023-03-06T15:52:55.026Z,4.72
2023-03-06T15:58:05.534Z,4.44
2023-03-06T16:03:13.138Z,4.31
2023-03-06T16:08:18.145Z,3.99
2023-03-06T16:13:30.129Z,2.71
2023-03-06T16:18:35.527Z,2.72
2023-03-06T16:23:45.290Z,2.61
2023-03-06T16:28:53.116Z,2.67
2023-03-06T16:34:00.511Z,2.31
2023-03-06T16:39:06.307Z,2.33
2023-03-06T16:44:16.329Z,2.39
2023-03-06T16:49:23.943Z,2.49
2023-03-06T16:54:28.893Z,2.48
2023-03-06T16:59:36.544Z,2.90
2023-03-06T17:04:43.020Z,2.67
2023-03-06T17:09:50.258Z,2.98
2023-03-06T17:15:05.533Z,2.92
2023-03-06T17:20:15.541Z,2.89
2023-03-06T17:25:22.103Z,2.81
2023-03-06T17:30:31.104Z,2.71
2023-03-06T17:35:38.030Z,3.19
2023-03-06T17:40:43.130Z,2.65
2023-03-06T17:45:50.838Z,2.61
2023-03-06T17:50:57.042Z,2.77
2023-03-06T17:56:02.363Z,2.73
2023-03-06T18:01:16.662Z,2.61
2023-03-06T18:06:22.303Z,2.85
2023-03-06T18:11:27.930Z,2.33
2023-03-06T18:16:35.963Z,2.39
2023-03-06T18:21:41.129Z,2.46
2023-03-06T18:26:46.403Z,2.52
2023-03-06T18:31:54.081Z,2.48
2023-03-06T18:36:59.151Z,2.31
2023-03-06T18:42:04.152Z,2.34
2023-03-06T18:47:11.902Z,2.38
2023-03-06T18:52:16.976Z,2.33
2023-03-06T18:57:22.549Z,2.13
2023-03-06T19:02:30.200Z,2.23
2023-03-06T19:07:35.267Z,2.23
2023-03-06T19:12:40.297Z,2.51
2023-03-06T19:17:51.688Z,2.34
2023-03-06T19:22:59.301Z,2.32
2023-03-06T19:28:06.356Z,2.24
2023-03-06T19:33:15.732Z,2.41
2023-03-06T19:38:20.844Z,2.43
2023-03-06T19:43:25.966Z,2.51
2023-03-06T19:48:33.573Z,2.17
2023-03-06T19:53:38.987Z,2.19
2023-03-06T19:58:44.364Z,2.27
2023-03-06T20:03:52.367Z,2.19
2023-03-06T20:08:58.121Z,2.34
2023-03-06T20:14:05.077Z,2.27
2023-03-06T20:19:13.880Z,2.06
2023-03-06T20:24:19.475Z,2.05
2023-03-06T20:29:25.501Z,2.04
2023-03-06T20:34:33.710Z,2.04
2023-03-06T20:39:39.348Z,2.30
2023-03-06T20:44:44.403Z,2.42
2023-03-06T20:49:52.379Z,2.54
2023-03-06T20:54:58.799Z,2.60
2023-03-06T21:00:04.569Z,2.41
2023-03-06T21:05:13.052Z,2.40
2023-03-06T21:10:18.470Z,2.37
2023-03-06T21:15:27.243Z,2.13
2023-03-06T21:20:34.862Z,2.33
2023-03-06T21:25:50.236Z,2.27
2023-03-06T21:30:55.276Z,2.12
2023-03-06T21:36:03.546Z,2.46
2023-03-06T21:41:13.453Z,2.63
2023-03-06T21:46:18.494Z,2.61
2023-03-06T21:51:27.029Z,2.61
2023-03-06T21:56:33.991Z,2.65
2023-03-06T22:01:42.709Z,2.53
2023-03-06T22:06:50.359Z,2.16
2023-03-06T22:11:55.410Z,2.17
2023-03-06T22:17:01.583Z,2.16
2023-03-06T22:22:10.738Z,2.17
2023-03-06T22:27:15.869Z,1.94
2023-03-06T22:32:20.822Z,2.03
2023-03-06T22:37:28.551Z,1.88
2023-03-06T22:42:36.409Z,1.85
2023-03-06T22:47:44.204Z,1.91
2023-03-06T22:52:52.911Z,1.75
2023-03-06T22:57:57.892Z,1.85
2023-03-06T23:03:02.973Z,1.62
2023-03-06T23:08:10.989Z,1.72
2023-03-06T23:13:16.192Z,1.63
2023-03-06T23:18:43.487Z,1.44
2023-03-06T23:24:10.592Z,1.67
2023-03-06T23:29:15.569Z,1.82
2023-03-06T23:34:20.506Z,2.02
2023-03-06T23:39:28.115Z,1.93
2023-03-06T23:44:33.263Z,2.04
2023-03-06T23:49:38.348Z,2.06
2023-03-06T23:54:45.902Z,2.09
2023-03-06T23:59:50.997Z,2.05
